Stampa

METAR LIMF - Aeroporto di Torino Caselle

Torino / Caselle, Italy (LIMF) 45-13N 007-39E 287M

Jan 21, 2020 - 12:20 PM EST / 2020.01.21 1720 UTC

Wind: Variable at 1 MPH (1 KT):0

Visibility: greater than 7 mile(s):0

Temperature: 37 F (3 C)

Dew Point: 24 F (-4 C)

Relative Humidity: 59%

Pressure (altimeter): 30.65 in. Hg (1038 hPa)

ob: LIMF 211720Z VRB01KT CAVOK 03/M04 Q1038

cycle: 17

 Dati METAR in tempo reale | Fonte: NOAA

Valuta questo articolo

1 1 1 1 1 1 1 1 1 1
Valutazione 0.00 (0 Voti)
hits
473

Ritieni il contenuto di questa pagina incompleto, non attendibile oppure oggetto di altre problematiche? INVIA UNA SEGNALAZIONE Grazie!